aviador You're here:

KGPT Decoded Metar

GULFPORT in MS, USA
Report Time2017-03-30 17:53:00
UTC Time2017-03-30 18:28:22
Flight Rules vfr VFR
Wind320° at 08 kt
W.Decomp.*RWY 32: 8.0 kt HW 0.3 kt LCW
RWY 36: 5.9 kt HW 5.4 kt LCW
W.Rank320° ranks 19
Current wind is above 320° avg. (6.9)
Visibility9999 m
Phenomena:N/A
Clouds:Scattered 060 Hf
Broken 110 Hf
Expected CloudBase > 1,200 ft AGL from Temp-Dew spread
Ceiling11,000 ft
Temp19°C (ISA +4)
Dew Point16°C (83% RH)
AAT18.1°C
QNH1012 hPa
Density Alt801 ft
Elevation46 ft
Report Wrong Elevation
Raw Report
KGPT 301753Z 32008KT 10SM SCT060 BKN110 19/16 A2989=

Extra information for KGPT:More info

Metar Taf Metar & Taf Last 4 Metars F.Rules Stats Wind Profile Meteogram Temp Stats Airport Information Weather charts Add Link Nearby VenuesMetar ALERT Operation Metar Decoded Social comments

AIRNAV info for KGPT